<?xml version="1.0" encoding="UTF-8" standalone="no" ?>
<gpx xmlns="http://www.topografix.com/GPX/1/1" xmlns:xsi="http://www.w3.org/2001/XMLSchema-instance" xsi:schemaLocation="http://www.topografix.com/GPX/1/1 http://www.topografix.com/GPX/1/1/gpx.xsd" version="1.1" creator="VisuGPX - https://www.visugpx.com">
  <metadata>
    <name>Course à pied dans l'après-midi</name>
  </metadata>
  <trk>
    <name><![CDATA[Course à pied dans l'après-midi_1]]></name>
    <trkseg>
      <trkpt lat="48.71144" lon="7.163">
        <ele>317.2</ele>
        <time>2023-11-01T16:47:08Z</time>
      </trkpt>
      <trkpt lat="48.7114" lon="7.16279">
        <ele>317.5</ele>
        <time>2023-11-01T16:47:12Z</time>
      </trkpt>
      <trkpt lat="48.71124" lon="7.16263">
        <ele>317.8</ele>
        <time>2023-11-01T16:47:20Z</time>
      </trkpt>
      <trkpt lat="48.71111" lon="7.16243">
        <ele>318</ele>
        <time>2023-11-01T16:47:27Z</time>
      </trkpt>
      <trkpt lat="48.71095" lon="7.16225">
        <ele>318.1</ele>
        <time>2023-11-01T16:47:34Z</time>
      </trkpt>
      <trkpt lat="48.71079" lon="7.16208">
        <ele>318.3</ele>
        <time>2023-11-01T16:47:41Z</time>
      </trkpt>
      <trkpt lat="48.71064" lon="7.16194">
        <ele>318.5</ele>
        <time>2023-11-01T16:47:48Z</time>
      </trkpt>
      <trkpt lat="48.71046" lon="7.16187">
        <ele>318.6</ele>
        <time>2023-11-01T16:47:55Z</time>
      </trkpt>
      <trkpt lat="48.71026" lon="7.1618">
        <ele>318.7</ele>
        <time>2023-11-01T16:48:03Z</time>
      </trkpt>
      <trkpt lat="48.71008" lon="7.16177">
        <ele>318.9</ele>
        <time>2023-11-01T16:48:10Z</time>
      </trkpt>
      <trkpt lat="48.70989" lon="7.16171">
        <ele>319.2</ele>
        <time>2023-11-01T16:48:17Z</time>
      </trkpt>
      <trkpt lat="48.7097" lon="7.16165">
        <ele>319.8</ele>
        <time>2023-11-01T16:48:24Z</time>
      </trkpt>
      <trkpt lat="48.70951" lon="7.16161">
        <ele>320.4</ele>
        <time>2023-11-01T16:48:31Z</time>
      </trkpt>
      <trkpt lat="48.70933" lon="7.16157">
        <ele>321.1</ele>
        <time>2023-11-01T16:48:39Z</time>
      </trkpt>
      <trkpt lat="48.70914" lon="7.16151">
        <ele>321.8</ele>
        <time>2023-11-01T16:48:47Z</time>
      </trkpt>
      <trkpt lat="48.70896" lon="7.16143">
        <ele>322.5</ele>
        <time>2023-11-01T16:48:55Z</time>
      </trkpt>
      <trkpt lat="48.70878" lon="7.16139">
        <ele>323.2</ele>
        <time>2023-11-01T16:49:02Z</time>
      </trkpt>
      <trkpt lat="48.70859" lon="7.16134">
        <ele>323.9</ele>
        <time>2023-11-01T16:49:09Z</time>
      </trkpt>
      <trkpt lat="48.70839" lon="7.16133">
        <ele>324.7</ele>
        <time>2023-11-01T16:49:16Z</time>
      </trkpt>
      <trkpt lat="48.70821" lon="7.16128">
        <ele>325.4</ele>
        <time>2023-11-01T16:49:23Z</time>
      </trkpt>
      <trkpt lat="48.70803" lon="7.16125">
        <ele>326.3</ele>
        <time>2023-11-01T16:49:30Z</time>
      </trkpt>
      <trkpt lat="48.70783" lon="7.16119">
        <ele>327.2</ele>
        <time>2023-11-01T16:49:39Z</time>
      </trkpt>
      <trkpt lat="48.70765" lon="7.16116">
        <ele>328.1</ele>
        <time>2023-11-01T16:49:47Z</time>
      </trkpt>
      <trkpt lat="48.70747" lon="7.1611">
        <ele>328.9</ele>
        <time>2023-11-01T16:49:55Z</time>
      </trkpt>
      <trkpt lat="48.70727" lon="7.16109">
        <ele>329.9</ele>
        <time>2023-11-01T16:50:03Z</time>
      </trkpt>
      <trkpt lat="48.70708" lon="7.16106">
        <ele>330.9</ele>
        <time>2023-11-01T16:50:11Z</time>
      </trkpt>
      <trkpt lat="48.7069" lon="7.16102">
        <ele>331.9</ele>
        <time>2023-11-01T16:50:19Z</time>
      </trkpt>
      <trkpt lat="48.70671" lon="7.16102">
        <ele>332.9</ele>
        <time>2023-11-01T16:50:27Z</time>
      </trkpt>
      <trkpt lat="48.70653" lon="7.16101">
        <ele>333.9</ele>
        <time>2023-11-01T16:50:35Z</time>
      </trkpt>
      <trkpt lat="48.70633" lon="7.16104">
        <ele>334.9</ele>
        <time>2023-11-01T16:50:43Z</time>
      </trkpt>
      <trkpt lat="48.70614" lon="7.16106">
        <ele>336</ele>
        <time>2023-11-01T16:50:51Z</time>
      </trkpt>
      <trkpt lat="48.70594" lon="7.16109">
        <ele>336.9</ele>
        <time>2023-11-01T16:50:59Z</time>
      </trkpt>
      <trkpt lat="48.70574" lon="7.16112">
        <ele>337.7</ele>
        <time>2023-11-01T16:51:07Z</time>
      </trkpt>
      <trkpt lat="48.70554" lon="7.16109">
        <ele>338.3</ele>
        <time>2023-11-01T16:51:15Z</time>
      </trkpt>
      <trkpt lat="48.70536" lon="7.16104">
        <ele>338.6</ele>
        <time>2023-11-01T16:51:22Z</time>
      </trkpt>
      <trkpt lat="48.70515" lon="7.16096">
        <ele>338.7</ele>
        <time>2023-11-01T16:51:29Z</time>
      </trkpt>
      <trkpt lat="48.70498" lon="7.16088">
        <ele>338.7</ele>
        <time>2023-11-01T16:51:36Z</time>
      </trkpt>
      <trkpt lat="48.7048" lon="7.16079">
        <ele>338.8</ele>
        <time>2023-11-01T16:51:43Z</time>
      </trkpt>
      <trkpt lat="48.70462" lon="7.16072">
        <ele>339.2</ele>
        <time>2023-11-01T16:51:50Z</time>
      </trkpt>
      <trkpt lat="48.70443" lon="7.16062">
        <ele>339.8</ele>
        <time>2023-11-01T16:51:58Z</time>
      </trkpt>
      <trkpt lat="48.70425" lon="7.16055">
        <ele>340.7</ele>
        <time>2023-11-01T16:52:06Z</time>
      </trkpt>
      <trkpt lat="48.70405" lon="7.1605">
        <ele>341.8</ele>
        <time>2023-11-01T16:52:14Z</time>
      </trkpt>
      <trkpt lat="48.70386" lon="7.16047">
        <ele>342.9</ele>
        <time>2023-11-01T16:52:22Z</time>
      </trkpt>
      <trkpt lat="48.70367" lon="7.16044">
        <ele>344.2</ele>
        <time>2023-11-01T16:52:30Z</time>
      </trkpt>
      <trkpt lat="48.70349" lon="7.16043">
        <ele>345.4</ele>
        <time>2023-11-01T16:52:38Z</time>
      </trkpt>
      <trkpt lat="48.70329" lon="7.16042">
        <ele>346.8</ele>
        <time>2023-11-01T16:52:46Z</time>
      </trkpt>
      <trkpt lat="48.7031" lon="7.1604">
        <ele>348</ele>
        <time>2023-11-01T16:52:54Z</time>
      </trkpt>
      <trkpt lat="48.70292" lon="7.1604">
        <ele>349.1</ele>
        <time>2023-11-01T16:53:02Z</time>
      </trkpt>
      <trkpt lat="48.70273" lon="7.16041">
        <ele>350.1</ele>
        <time>2023-11-01T16:53:10Z</time>
      </trkpt>
      <trkpt lat="48.70254" lon="7.16041">
        <ele>351.1</ele>
        <time>2023-11-01T16:53:18Z</time>
      </trkpt>
      <trkpt lat="48.70234" lon="7.16041">
        <ele>352.2</ele>
        <time>2023-11-01T16:53:27Z</time>
      </trkpt>
      <trkpt lat="48.70216" lon="7.1604">
        <ele>352.9</ele>
        <time>2023-11-01T16:53:36Z</time>
      </trkpt>
      <trkpt lat="48.70205" lon="7.16016">
        <ele>352.6</ele>
        <time>2023-11-01T16:53:43Z</time>
      </trkpt>
      <trkpt lat="48.70204" lon="7.15987">
        <ele>352</ele>
        <time>2023-11-01T16:53:50Z</time>
      </trkpt>
      <trkpt lat="48.70207" lon="7.15953">
        <ele>351.6</ele>
        <time>2023-11-01T16:53:57Z</time>
      </trkpt>
      <trkpt lat="48.7021" lon="7.15926">
        <ele>351.3</ele>
        <time>2023-11-01T16:54:05Z</time>
      </trkpt>
      <trkpt lat="48.70214" lon="7.15897">
        <ele>351.1</ele>
        <time>2023-11-01T16:54:12Z</time>
      </trkpt>
      <trkpt lat="48.70215" lon="7.15869">
        <ele>350.9</ele>
        <time>2023-11-01T16:54:19Z</time>
      </trkpt>
      <trkpt lat="48.70217" lon="7.1584">
        <ele>350.8</ele>
        <time>2023-11-01T16:54:26Z</time>
      </trkpt>
      <trkpt lat="48.70219" lon="7.15811">
        <ele>350.8</ele>
        <time>2023-11-01T16:54:34Z</time>
      </trkpt>
      <trkpt lat="48.70218" lon="7.15781">
        <ele>351.3</ele>
        <time>2023-11-01T16:54:41Z</time>
      </trkpt>
      <trkpt lat="48.70217" lon="7.15751">
        <ele>352.2</ele>
        <time>2023-11-01T16:54:48Z</time>
      </trkpt>
      <trkpt lat="48.70217" lon="7.15724">
        <ele>353.1</ele>
        <time>2023-11-01T16:54:55Z</time>
      </trkpt>
      <trkpt lat="48.70217" lon="7.15693">
        <ele>354.3</ele>
        <time>2023-11-01T16:55:03Z</time>
      </trkpt>
      <trkpt lat="48.70216" lon="7.15664">
        <ele>355.7</ele>
        <time>2023-11-01T16:55:11Z</time>
      </trkpt>
      <trkpt lat="48.70216" lon="7.15636">
        <ele>357.1</ele>
        <time>2023-11-01T16:55:19Z</time>
      </trkpt>
      <trkpt lat="48.70215" lon="7.15605">
        <ele>358.5</ele>
        <time>2023-11-01T16:55:27Z</time>
      </trkpt>
      <trkpt lat="48.70214" lon="7.15574">
        <ele>360</ele>
        <time>2023-11-01T16:55:35Z</time>
      </trkpt>
      <trkpt lat="48.70212" lon="7.15544">
        <ele>361</ele>
        <time>2023-11-01T16:55:43Z</time>
      </trkpt>
      <trkpt lat="48.7021" lon="7.15517">
        <ele>361.8</ele>
        <time>2023-11-01T16:55:50Z</time>
      </trkpt>
      <trkpt lat="48.70208" lon="7.15488">
        <ele>362.5</ele>
        <time>2023-11-01T16:55:57Z</time>
      </trkpt>
      <trkpt lat="48.70206" lon="7.15458">
        <ele>362.9</ele>
        <time>2023-11-01T16:56:04Z</time>
      </trkpt>
      <trkpt lat="48.70205" lon="7.15429">
        <ele>363</ele>
        <time>2023-11-01T16:56:11Z</time>
      </trkpt>
      <trkpt lat="48.70203" lon="7.15399">
        <ele>363</ele>
        <time>2023-11-01T16:56:18Z</time>
      </trkpt>
      <trkpt lat="48.70201" lon="7.15368">
        <ele>362.2</ele>
        <time>2023-11-01T16:56:25Z</time>
      </trkpt>
      <trkpt lat="48.702" lon="7.1534">
        <ele>361.5</ele>
        <time>2023-11-01T16:56:31Z</time>
      </trkpt>
      <trkpt lat="48.70208" lon="7.15315">
        <ele>360.8</ele>
        <time>2023-11-01T16:56:37Z</time>
      </trkpt>
      <trkpt lat="48.70221" lon="7.15296">
        <ele>360.2</ele>
        <time>2023-11-01T16:56:43Z</time>
      </trkpt>
      <trkpt lat="48.70235" lon="7.15276">
        <ele>359.8</ele>
        <time>2023-11-01T16:56:49Z</time>
      </trkpt>
      <trkpt lat="48.70248" lon="7.15257">
        <ele>359.6</ele>
        <time>2023-11-01T16:56:55Z</time>
      </trkpt>
      <trkpt lat="48.70263" lon="7.15241">
        <ele>359.4</ele>
        <time>2023-11-01T16:57:01Z</time>
      </trkpt>
      <trkpt lat="48.70279" lon="7.15228">
        <ele>359.3</ele>
        <time>2023-11-01T16:57:07Z</time>
      </trkpt>
      <trkpt lat="48.70297" lon="7.15221">
        <ele>359.2</ele>
        <time>2023-11-01T16:57:13Z</time>
      </trkpt>
      <trkpt lat="48.70317" lon="7.15226">
        <ele>359.3</ele>
        <time>2023-11-01T16:57:20Z</time>
      </trkpt>
      <trkpt lat="48.70334" lon="7.15239">
        <ele>359.5</ele>
        <time>2023-11-01T16:57:27Z</time>
      </trkpt>
      <trkpt lat="48.70352" lon="7.15255">
        <ele>359.4</ele>
        <time>2023-11-01T16:57:34Z</time>
      </trkpt>
      <trkpt lat="48.70372" lon="7.15267">
        <ele>359.1</ele>
        <time>2023-11-01T16:57:41Z</time>
      </trkpt>
      <trkpt lat="48.70389" lon="7.15276">
        <ele>359</ele>
        <time>2023-11-01T16:57:47Z</time>
      </trkpt>
      <trkpt lat="48.70409" lon="7.15284">
        <ele>359</ele>
        <time>2023-11-01T16:57:54Z</time>
      </trkpt>
      <trkpt lat="48.70428" lon="7.15294">
        <ele>359</ele>
        <time>2023-11-01T16:58:01Z</time>
      </trkpt>
      <trkpt lat="48.70448" lon="7.15303">
        <ele>358.9</ele>
        <time>2023-11-01T16:58:08Z</time>
      </trkpt>
      <trkpt lat="48.70465" lon="7.15311">
        <ele>358.7</ele>
        <time>2023-11-01T16:58:14Z</time>
      </trkpt>
      <trkpt lat="48.70484" lon="7.15324">
        <ele>358.5</ele>
        <time>2023-11-01T16:58:21Z</time>
      </trkpt>
      <trkpt lat="48.70501" lon="7.15341">
        <ele>358.1</ele>
        <time>2023-11-01T16:58:28Z</time>
      </trkpt>
      <trkpt lat="48.70519" lon="7.15358">
        <ele>357.6</ele>
        <time>2023-11-01T16:58:35Z</time>
      </trkpt>
      <trkpt lat="48.70534" lon="7.15373">
        <ele>357.3</ele>
        <time>2023-11-01T16:58:41Z</time>
      </trkpt>
      <trkpt lat="48.70553" lon="7.15385">
        <ele>357</ele>
        <time>2023-11-01T16:58:48Z</time>
      </trkpt>
      <trkpt lat="48.70571" lon="7.15393">
        <ele>356.7</ele>
        <time>2023-11-01T16:58:54Z</time>
      </trkpt>
      <trkpt lat="48.7059" lon="7.15402">
        <ele>356.6</ele>
        <time>2023-11-01T16:59:01Z</time>
      </trkpt>
      <trkpt lat="48.7061" lon="7.15413">
        <ele>356.2</ele>
        <time>2023-11-01T16:59:08Z</time>
      </trkpt>
      <trkpt lat="48.70629" lon="7.15423">
        <ele>355.8</ele>
        <time>2023-11-01T16:59:15Z</time>
      </trkpt>
      <trkpt lat="48.70649" lon="7.15434">
        <ele>355.7</ele>
        <time>2023-11-01T16:59:22Z</time>
      </trkpt>
      <trkpt lat="48.70668" lon="7.15444">
        <ele>355.2</ele>
        <time>2023-11-01T16:59:29Z</time>
      </trkpt>
      <trkpt lat="48.70688" lon="7.15454">
        <ele>354.4</ele>
        <time>2023-11-01T16:59:36Z</time>
      </trkpt>
      <trkpt lat="48.70707" lon="7.15465">
        <ele>353.4</ele>
        <time>2023-11-01T16:59:43Z</time>
      </trkpt>
      <trkpt lat="48.70724" lon="7.15477">
        <ele>352.3</ele>
        <time>2023-11-01T16:59:49Z</time>
      </trkpt>
      <trkpt lat="48.70739" lon="7.15492">
        <ele>351.5</ele>
        <time>2023-11-01T16:59:55Z</time>
      </trkpt>
      <trkpt lat="48.70755" lon="7.15508">
        <ele>350.8</ele>
        <time>2023-11-01T17:00:01Z</time>
      </trkpt>
      <trkpt lat="48.70772" lon="7.15526">
        <ele>349.9</ele>
        <time>2023-11-01T17:00:08Z</time>
      </trkpt>
      <trkpt lat="48.70786" lon="7.15542">
        <ele>349.3</ele>
        <time>2023-11-01T17:00:14Z</time>
      </trkpt>
      <trkpt lat="48.70804" lon="7.15559">
        <ele>348.4</ele>
        <time>2023-11-01T17:00:21Z</time>
      </trkpt>
      <trkpt lat="48.70819" lon="7.15575">
        <ele>347.8</ele>
        <time>2023-11-01T17:00:27Z</time>
      </trkpt>
      <trkpt lat="48.70835" lon="7.1559">
        <ele>347.2</ele>
        <time>2023-11-01T17:00:33Z</time>
      </trkpt>
      <trkpt lat="48.70852" lon="7.15608">
        <ele>346.5</ele>
        <time>2023-11-01T17:00:40Z</time>
      </trkpt>
      <trkpt lat="48.70869" lon="7.15624">
        <ele>345.7</ele>
        <time>2023-11-01T17:00:47Z</time>
      </trkpt>
      <trkpt lat="48.70886" lon="7.15636">
        <ele>344.9</ele>
        <time>2023-11-01T17:00:54Z</time>
      </trkpt>
      <trkpt lat="48.70903" lon="7.15651">
        <ele>343.9</ele>
        <time>2023-11-01T17:01:00Z</time>
      </trkpt>
      <trkpt lat="48.70919" lon="7.15668">
        <ele>342.5</ele>
        <time>2023-11-01T17:01:06Z</time>
      </trkpt>
      <trkpt lat="48.70936" lon="7.15681">
        <ele>341.2</ele>
        <time>2023-11-01T17:01:12Z</time>
      </trkpt>
      <trkpt lat="48.70955" lon="7.15685">
        <ele>340.1</ele>
        <time>2023-11-01T17:01:18Z</time>
      </trkpt>
      <trkpt lat="48.70958" lon="7.15679">
        <ele>341.7</ele>
        <time>2023-11-01T17:01:19Z</time>
      </trkpt>
      <trkpt lat="48.70958" lon="7.15649">
        <ele>343.2</ele>
        <time>2023-11-01T17:01:28Z</time>
      </trkpt>
      <trkpt lat="48.70955" lon="7.1562">
        <ele>344.6</ele>
        <time>2023-11-01T17:01:36Z</time>
      </trkpt>
      <trkpt lat="48.70952" lon="7.15589">
        <ele>345.8</ele>
        <time>2023-11-01T17:01:44Z</time>
      </trkpt>
      <trkpt lat="48.7095" lon="7.15558">
        <ele>346.9</ele>
        <time>2023-11-01T17:01:52Z</time>
      </trkpt>
      <trkpt lat="48.70948" lon="7.15529">
        <ele>348</ele>
        <time>2023-11-01T17:02:00Z</time>
      </trkpt>
      <trkpt lat="48.70948" lon="7.155">
        <ele>348.8</ele>
        <time>2023-11-01T17:02:07Z</time>
      </trkpt>
      <trkpt lat="48.70948" lon="7.15471">
        <ele>349.6</ele>
        <time>2023-11-01T17:02:14Z</time>
      </trkpt>
      <trkpt lat="48.70949" lon="7.1544">
        <ele>350.4</ele>
        <time>2023-11-01T17:02:21Z</time>
      </trkpt>
      <trkpt lat="48.70949" lon="7.1541">
        <ele>350.4</ele>
        <time>2023-11-01T17:02:28Z</time>
      </trkpt>
      <trkpt lat="48.70951" lon="7.1538">
        <ele>350</ele>
        <time>2023-11-01T17:02:35Z</time>
      </trkpt>
      <trkpt lat="48.70953" lon="7.1535">
        <ele>349.4</ele>
        <time>2023-11-01T17:02:42Z</time>
      </trkpt>
      <trkpt lat="48.70954" lon="7.15319">
        <ele>348.6</ele>
        <time>2023-11-01T17:02:49Z</time>
      </trkpt>
      <trkpt lat="48.70956" lon="7.15288">
        <ele>348</ele>
        <time>2023-11-01T17:02:56Z</time>
      </trkpt>
      <trkpt lat="48.70959" lon="7.15259">
        <ele>347.5</ele>
        <time>2023-11-01T17:03:03Z</time>
      </trkpt>
      <trkpt lat="48.70962" lon="7.15229">
        <ele>346.9</ele>
        <time>2023-11-01T17:03:10Z</time>
      </trkpt>
      <trkpt lat="48.70965" lon="7.15202">
        <ele>346.4</ele>
        <time>2023-11-01T17:03:16Z</time>
      </trkpt>
      <trkpt lat="48.70968" lon="7.15174">
        <ele>345.4</ele>
        <time>2023-11-01T17:03:22Z</time>
      </trkpt>
      <trkpt lat="48.70971" lon="7.15146">
        <ele>344.3</ele>
        <time>2023-11-01T17:03:28Z</time>
      </trkpt>
      <trkpt lat="48.70976" lon="7.15119">
        <ele>343.4</ele>
        <time>2023-11-01T17:03:34Z</time>
      </trkpt>
      <trkpt lat="48.70982" lon="7.15091">
        <ele>342.5</ele>
        <time>2023-11-01T17:03:40Z</time>
      </trkpt>
      <trkpt lat="48.70989" lon="7.15064">
        <ele>341.6</ele>
        <time>2023-11-01T17:03:46Z</time>
      </trkpt>
      <trkpt lat="48.70997" lon="7.15035">
        <ele>341.1</ele>
        <time>2023-11-01T17:03:53Z</time>
      </trkpt>
      <trkpt lat="48.71004" lon="7.15007">
        <ele>340.6</ele>
        <time>2023-11-01T17:04:00Z</time>
      </trkpt>
      <trkpt lat="48.71012" lon="7.14978">
        <ele>340.1</ele>
        <time>2023-11-01T17:04:07Z</time>
      </trkpt>
      <trkpt lat="48.71019" lon="7.1496">
        <ele>339.9</ele>
        <time>2023-11-01T17:04:12Z</time>
      </trkpt>
      <trkpt lat="48.71037" lon="7.14966">
        <ele>339.6</ele>
        <time>2023-11-01T17:04:19Z</time>
      </trkpt>
      <trkpt lat="48.71056" lon="7.14972">
        <ele>339.6</ele>
        <time>2023-11-01T17:04:26Z</time>
      </trkpt>
      <trkpt lat="48.71075" lon="7.14972">
        <ele>339.5</ele>
        <time>2023-11-01T17:04:34Z</time>
      </trkpt>
      <trkpt lat="48.71095" lon="7.14973">
        <ele>339.6</ele>
        <time>2023-11-01T17:04:41Z</time>
      </trkpt>
      <trkpt lat="48.71104" lon="7.14995">
        <ele>340.6</ele>
        <time>2023-11-01T17:04:49Z</time>
      </trkpt>
      <trkpt lat="48.71104" lon="7.15026">
        <ele>341.4</ele>
        <time>2023-11-01T17:04:57Z</time>
      </trkpt>
      <trkpt lat="48.71105" lon="7.1503">
        <ele>341.5</ele>
        <time>2023-11-01T17:04:59Z</time>
      </trkpt>
      <trkpt lat="48.71125" lon="7.15028">
        <ele>341.5</ele>
        <time>2023-11-01T17:05:09Z</time>
      </trkpt>
      <trkpt lat="48.71144" lon="7.1502">
        <ele>341.7</ele>
        <time>2023-11-01T17:05:17Z</time>
      </trkpt>
      <trkpt lat="48.71162" lon="7.15014">
        <ele>341.8</ele>
        <time>2023-11-01T17:05:23Z</time>
      </trkpt>
      <trkpt lat="48.71179" lon="7.15007">
        <ele>342.1</ele>
        <time>2023-11-01T17:05:29Z</time>
      </trkpt>
      <trkpt lat="48.712" lon="7.15001">
        <ele>342.3</ele>
        <time>2023-11-01T17:05:36Z</time>
      </trkpt>
      <trkpt lat="48.71219" lon="7.14993">
        <ele>342.8</ele>
        <time>2023-11-01T17:05:43Z</time>
      </trkpt>
      <trkpt lat="48.71238" lon="7.14988">
        <ele>343.3</ele>
        <time>2023-11-01T17:05:50Z</time>
      </trkpt>
      <trkpt lat="48.71256" lon="7.14979">
        <ele>343.9</ele>
        <time>2023-11-01T17:05:57Z</time>
      </trkpt>
      <trkpt lat="48.71274" lon="7.14972">
        <ele>344.4</ele>
        <time>2023-11-01T17:06:02Z</time>
      </trkpt>
      <trkpt lat="48.71293" lon="7.14967">
        <ele>345.2</ele>
        <time>2023-11-01T17:06:09Z</time>
      </trkpt>
      <trkpt lat="48.71312" lon="7.14962">
        <ele>346</ele>
        <time>2023-11-01T17:06:18Z</time>
      </trkpt>
      <trkpt lat="48.71331" lon="7.14953">
        <ele>346.3</ele>
        <time>2023-11-01T17:06:24Z</time>
      </trkpt>
      <trkpt lat="48.71349" lon="7.14948">
        <ele>346.1</ele>
        <time>2023-11-01T17:06:30Z</time>
      </trkpt>
      <trkpt lat="48.71367" lon="7.1494">
        <ele>346.4</ele>
        <time>2023-11-01T17:06:36Z</time>
      </trkpt>
      <trkpt lat="48.71385" lon="7.14934">
        <ele>347.1</ele>
        <time>2023-11-01T17:06:42Z</time>
      </trkpt>
      <trkpt lat="48.71404" lon="7.14923">
        <ele>347.2</ele>
        <time>2023-11-01T17:06:49Z</time>
      </trkpt>
      <trkpt lat="48.71425" lon="7.14916">
        <ele>347.2</ele>
        <time>2023-11-01T17:06:56Z</time>
      </trkpt>
      <trkpt lat="48.71445" lon="7.14907">
        <ele>347.5</ele>
        <time>2023-11-01T17:07:02Z</time>
      </trkpt>
      <trkpt lat="48.71465" lon="7.149">
        <ele>347.4</ele>
        <time>2023-11-01T17:07:08Z</time>
      </trkpt>
      <trkpt lat="48.71484" lon="7.14892">
        <ele>347.5</ele>
        <time>2023-11-01T17:07:15Z</time>
      </trkpt>
      <trkpt lat="48.71504" lon="7.14889">
        <ele>347.7</ele>
        <time>2023-11-01T17:07:21Z</time>
      </trkpt>
      <trkpt lat="48.71524" lon="7.14883">
        <ele>348</ele>
        <time>2023-11-01T17:07:28Z</time>
      </trkpt>
      <trkpt lat="48.71545" lon="7.14874">
        <ele>348.1</ele>
        <time>2023-11-01T17:07:34Z</time>
      </trkpt>
      <trkpt lat="48.71564" lon="7.14866">
        <ele>347.8</ele>
        <time>2023-11-01T17:07:40Z</time>
      </trkpt>
      <trkpt lat="48.71583" lon="7.14859">
        <ele>347.8</ele>
        <time>2023-11-01T17:07:46Z</time>
      </trkpt>
      <trkpt lat="48.71601" lon="7.14852">
        <ele>348</ele>
        <time>2023-11-01T17:07:52Z</time>
      </trkpt>
      <trkpt lat="48.7162" lon="7.14845">
        <ele>348</ele>
        <time>2023-11-01T17:07:59Z</time>
      </trkpt>
      <trkpt lat="48.71639" lon="7.14836">
        <ele>347.9</ele>
        <time>2023-11-01T17:08:06Z</time>
      </trkpt>
      <trkpt lat="48.71658" lon="7.14831">
        <ele>348.2</ele>
        <time>2023-11-01T17:08:12Z</time>
      </trkpt>
      <trkpt lat="48.71676" lon="7.14824">
        <ele>348.4</ele>
        <time>2023-11-01T17:08:18Z</time>
      </trkpt>
      <trkpt lat="48.71696" lon="7.14817">
        <ele>348.7</ele>
        <time>2023-11-01T17:08:24Z</time>
      </trkpt>
      <trkpt lat="48.71716" lon="7.14811">
        <ele>347.2</ele>
        <time>2023-11-01T17:08:30Z</time>
      </trkpt>
      <trkpt lat="48.71735" lon="7.14807">
        <ele>345.6</ele>
        <time>2023-11-01T17:08:36Z</time>
      </trkpt>
      <trkpt lat="48.71754" lon="7.14804">
        <ele>344</ele>
        <time>2023-11-01T17:08:42Z</time>
      </trkpt>
      <trkpt lat="48.71774" lon="7.14799">
        <ele>342.4</ele>
        <time>2023-11-01T17:08:48Z</time>
      </trkpt>
      <trkpt lat="48.71792" lon="7.14795">
        <ele>340.8</ele>
        <time>2023-11-01T17:08:54Z</time>
      </trkpt>
      <trkpt lat="48.71811" lon="7.14788">
        <ele>339.3</ele>
        <time>2023-11-01T17:09:00Z</time>
      </trkpt>
      <trkpt lat="48.7183" lon="7.14782">
        <ele>337.7</ele>
        <time>2023-11-01T17:09:06Z</time>
      </trkpt>
      <trkpt lat="48.71848" lon="7.14777">
        <ele>336.2</ele>
        <time>2023-11-01T17:09:12Z</time>
      </trkpt>
      <trkpt lat="48.71868" lon="7.1477">
        <ele>334.5</ele>
        <time>2023-11-01T17:09:18Z</time>
      </trkpt>
      <trkpt lat="48.71887" lon="7.14762">
        <ele>332.9</ele>
        <time>2023-11-01T17:09:25Z</time>
      </trkpt>
      <trkpt lat="48.71907" lon="7.14755">
        <ele>331.2</ele>
        <time>2023-11-01T17:09:32Z</time>
      </trkpt>
      <trkpt lat="48.71926" lon="7.14747">
        <ele>329.6</ele>
        <time>2023-11-01T17:09:39Z</time>
      </trkpt>
      <trkpt lat="48.71945" lon="7.14742">
        <ele>328</ele>
        <time>2023-11-01T17:09:46Z</time>
      </trkpt>
      <trkpt lat="48.71963" lon="7.14738">
        <ele>326.5</ele>
        <time>2023-11-01T17:09:57Z</time>
      </trkpt>
      <trkpt lat="48.71982" lon="7.14729">
        <ele>324.9</ele>
        <time>2023-11-01T17:10:07Z</time>
      </trkpt>
      <trkpt lat="48.72" lon="7.14722">
        <ele>323.3</ele>
        <time>2023-11-01T17:10:16Z</time>
      </trkpt>
      <trkpt lat="48.7202" lon="7.14714">
        <ele>321.6</ele>
        <time>2023-11-01T17:10:22Z</time>
      </trkpt>
      <trkpt lat="48.72027" lon="7.14716">
        <ele>318.1</ele>
        <time>2023-11-01T17:10:23Z</time>
      </trkpt>
      <trkpt lat="48.72036" lon="7.14739">
        <ele>319</ele>
        <time>2023-11-01T17:10:31Z</time>
      </trkpt>
      <trkpt lat="48.72045" lon="7.14768">
        <ele>320.5</ele>
        <time>2023-11-01T17:10:40Z</time>
      </trkpt>
      <trkpt lat="48.7205" lon="7.14798">
        <ele>321.8</ele>
        <time>2023-11-01T17:10:48Z</time>
      </trkpt>
      <trkpt lat="48.72056" lon="7.14828">
        <ele>322.9</ele>
        <time>2023-11-01T17:10:57Z</time>
      </trkpt>
      <trkpt lat="48.72059" lon="7.14857">
        <ele>324.2</ele>
        <time>2023-11-01T17:11:05Z</time>
      </trkpt>
      <trkpt lat="48.72059" lon="7.14885">
        <ele>325.6</ele>
        <time>2023-11-01T17:11:12Z</time>
      </trkpt>
      <trkpt lat="48.72057" lon="7.14914">
        <ele>326.6</ele>
        <time>2023-11-01T17:11:19Z</time>
      </trkpt>
      <trkpt lat="48.72057" lon="7.14942">
        <ele>327.5</ele>
        <time>2023-11-01T17:11:27Z</time>
      </trkpt>
      <trkpt lat="48.7206" lon="7.14969">
        <ele>328.2</ele>
        <time>2023-11-01T17:11:35Z</time>
      </trkpt>
      <trkpt lat="48.7207" lon="7.14996">
        <ele>328.6</ele>
        <time>2023-11-01T17:11:42Z</time>
      </trkpt>
      <trkpt lat="48.72079" lon="7.15024">
        <ele>328.8</ele>
        <time>2023-11-01T17:11:49Z</time>
      </trkpt>
      <trkpt lat="48.72089" lon="7.15049">
        <ele>329.2</ele>
        <time>2023-11-01T17:11:55Z</time>
      </trkpt>
      <trkpt lat="48.72102" lon="7.15067">
        <ele>330</ele>
        <time>2023-11-01T17:12:05Z</time>
      </trkpt>
      <trkpt lat="48.72118" lon="7.15082">
        <ele>330.4</ele>
        <time>2023-11-01T17:12:14Z</time>
      </trkpt>
      <trkpt lat="48.72122" lon="7.15111">
        <ele>330.2</ele>
        <time>2023-11-01T17:12:23Z</time>
      </trkpt>
      <trkpt lat="48.72127" lon="7.15138">
        <ele>329.8</ele>
        <time>2023-11-01T17:12:31Z</time>
      </trkpt>
      <trkpt lat="48.72133" lon="7.15151">
        <ele>329.1</ele>
        <time>2023-11-01T17:12:35Z</time>
      </trkpt>
      <trkpt lat="48.72152" lon="7.15143">
        <ele>327.6</ele>
        <time>2023-11-01T17:12:45Z</time>
      </trkpt>
      <trkpt lat="48.72169" lon="7.15131">
        <ele>326.1</ele>
        <time>2023-11-01T17:12:54Z</time>
      </trkpt>
      <trkpt lat="48.72186" lon="7.15116">
        <ele>324.6</ele>
        <time>2023-11-01T17:13:02Z</time>
      </trkpt>
      <trkpt lat="48.722" lon="7.15101">
        <ele>323.1</ele>
        <time>2023-11-01T17:13:09Z</time>
      </trkpt>
      <trkpt lat="48.72219" lon="7.15085">
        <ele>321.2</ele>
        <time>2023-11-01T17:13:15Z</time>
      </trkpt>
      <trkpt lat="48.72236" lon="7.15069">
        <ele>319.6</ele>
        <time>2023-11-01T17:13:20Z</time>
      </trkpt>
      <trkpt lat="48.72253" lon="7.15052">
        <ele>318.1</ele>
        <time>2023-11-01T17:13:26Z</time>
      </trkpt>
      <trkpt lat="48.72269" lon="7.15037">
        <ele>316.6</ele>
        <time>2023-11-01T17:13:32Z</time>
      </trkpt>
      <trkpt lat="48.72286" lon="7.15019">
        <ele>314.9</ele>
        <time>2023-11-01T17:13:39Z</time>
      </trkpt>
      <trkpt lat="48.72301" lon="7.15003">
        <ele>313.3</ele>
        <time>2023-11-01T17:13:45Z</time>
      </trkpt>
      <trkpt lat="48.72317" lon="7.14984">
        <ele>311.7</ele>
        <time>2023-11-01T17:13:51Z</time>
      </trkpt>
      <trkpt lat="48.72334" lon="7.14965">
        <ele>310.3</ele>
        <time>2023-11-01T17:13:57Z</time>
      </trkpt>
      <trkpt lat="48.72351" lon="7.14947">
        <ele>309</ele>
        <time>2023-11-01T17:14:03Z</time>
      </trkpt>
      <trkpt lat="48.72368" lon="7.1493">
        <ele>307.8</ele>
        <time>2023-11-01T17:14:09Z</time>
      </trkpt>
      <trkpt lat="48.72384" lon="7.14912">
        <ele>306.6</ele>
        <time>2023-11-01T17:14:15Z</time>
      </trkpt>
      <trkpt lat="48.724" lon="7.14894">
        <ele>305.3</ele>
        <time>2023-11-01T17:14:21Z</time>
      </trkpt>
      <trkpt lat="48.72416" lon="7.14875">
        <ele>304.1</ele>
        <time>2023-11-01T17:14:27Z</time>
      </trkpt>
      <trkpt lat="48.72432" lon="7.14856">
        <ele>302.8</ele>
        <time>2023-11-01T17:14:33Z</time>
      </trkpt>
      <trkpt lat="48.72446" lon="7.14838">
        <ele>301.7</ele>
        <time>2023-11-01T17:14:38Z</time>
      </trkpt>
      <trkpt lat="48.72462" lon="7.14819">
        <ele>300.5</ele>
        <time>2023-11-01T17:14:44Z</time>
      </trkpt>
      <trkpt lat="48.72477" lon="7.14801">
        <ele>299.6</ele>
        <time>2023-11-01T17:14:50Z</time>
      </trkpt>
      <trkpt lat="48.72492" lon="7.14791">
        <ele>298.8</ele>
        <time>2023-11-01T17:14:56Z</time>
      </trkpt>
      <trkpt lat="48.72493" lon="7.14817">
        <ele>299.5</ele>
        <time>2023-11-01T17:15:02Z</time>
      </trkpt>
      <trkpt lat="48.7249" lon="7.14846">
        <ele>300.2</ele>
        <time>2023-11-01T17:15:09Z</time>
      </trkpt>
      <trkpt lat="48.72489" lon="7.14875">
        <ele>301</ele>
        <time>2023-11-01T17:15:16Z</time>
      </trkpt>
      <trkpt lat="48.7249" lon="7.14906">
        <ele>302</ele>
        <time>2023-11-01T17:15:23Z</time>
      </trkpt>
      <trkpt lat="48.72488" lon="7.14936">
        <ele>302.9</ele>
        <time>2023-11-01T17:15:30Z</time>
      </trkpt>
      <trkpt lat="48.72488" lon="7.14966">
        <ele>303.8</ele>
        <time>2023-11-01T17:15:37Z</time>
      </trkpt>
      <trkpt lat="48.72486" lon="7.14996">
        <ele>304.8</ele>
        <time>2023-11-01T17:15:44Z</time>
      </trkpt>
      <trkpt lat="48.72485" lon="7.15025">
        <ele>305.8</ele>
        <time>2023-11-01T17:15:51Z</time>
      </trkpt>
      <trkpt lat="48.72485" lon="7.15054">
        <ele>306.6</ele>
        <time>2023-11-01T17:15:58Z</time>
      </trkpt>
      <trkpt lat="48.72483" lon="7.15082">
        <ele>307.5</ele>
        <time>2023-11-01T17:16:05Z</time>
      </trkpt>
      <trkpt lat="48.72481" lon="7.15109">
        <ele>308.3</ele>
        <time>2023-11-01T17:16:12Z</time>
      </trkpt>
      <trkpt lat="48.7248" lon="7.15137">
        <ele>309</ele>
        <time>2023-11-01T17:16:19Z</time>
      </trkpt>
      <trkpt lat="48.72479" lon="7.15167">
        <ele>309.8</ele>
        <time>2023-11-01T17:16:26Z</time>
      </trkpt>
      <trkpt lat="48.72479" lon="7.15197">
        <ele>310.5</ele>
        <time>2023-11-01T17:16:33Z</time>
      </trkpt>
      <trkpt lat="48.72478" lon="7.15225">
        <ele>311.2</ele>
        <time>2023-11-01T17:16:39Z</time>
      </trkpt>
      <trkpt lat="48.72478" lon="7.15253">
        <ele>312</ele>
        <time>2023-11-01T17:16:45Z</time>
      </trkpt>
      <trkpt lat="48.72474" lon="7.1528">
        <ele>312.6</ele>
        <time>2023-11-01T17:16:51Z</time>
      </trkpt>
      <trkpt lat="48.72471" lon="7.1531">
        <ele>313.4</ele>
        <time>2023-11-01T17:16:58Z</time>
      </trkpt>
      <trkpt lat="48.72469" lon="7.15341">
        <ele>314.3</ele>
        <time>2023-11-01T17:17:05Z</time>
      </trkpt>
      <trkpt lat="48.72466" lon="7.15372">
        <ele>315.3</ele>
        <time>2023-11-01T17:17:12Z</time>
      </trkpt>
      <trkpt lat="48.72466" lon="7.15399">
        <ele>316.1</ele>
        <time>2023-11-01T17:17:18Z</time>
      </trkpt>
      <trkpt lat="48.72465" lon="7.15427">
        <ele>316.9</ele>
        <time>2023-11-01T17:17:24Z</time>
      </trkpt>
      <trkpt lat="48.72463" lon="7.15456">
        <ele>317.8</ele>
        <time>2023-11-01T17:17:30Z</time>
      </trkpt>
      <trkpt lat="48.7246" lon="7.15487">
        <ele>318.7</ele>
        <time>2023-11-01T17:17:37Z</time>
      </trkpt>
      <trkpt lat="48.72459" lon="7.15518">
        <ele>319.5</ele>
        <time>2023-11-01T17:17:44Z</time>
      </trkpt>
      <trkpt lat="48.72457" lon="7.15549">
        <ele>320.3</ele>
        <time>2023-11-01T17:17:51Z</time>
      </trkpt>
      <trkpt lat="48.72453" lon="7.1558">
        <ele>321.1</ele>
        <time>2023-11-01T17:17:58Z</time>
      </trkpt>
      <trkpt lat="48.72452" lon="7.1561">
        <ele>321.8</ele>
        <time>2023-11-01T17:18:05Z</time>
      </trkpt>
      <trkpt lat="48.7245" lon="7.15642">
        <ele>322.5</ele>
        <time>2023-11-01T17:18:12Z</time>
      </trkpt>
      <trkpt lat="48.72449" lon="7.15669">
        <ele>323.1</ele>
        <time>2023-11-01T17:18:18Z</time>
      </trkpt>
      <trkpt lat="48.72447" lon="7.15699">
        <ele>323.7</ele>
        <time>2023-11-01T17:18:25Z</time>
      </trkpt>
      <trkpt lat="48.72445" lon="7.15728">
        <ele>324.2</ele>
        <time>2023-11-01T17:18:31Z</time>
      </trkpt>
      <trkpt lat="48.72445" lon="7.15756">
        <ele>324.7</ele>
        <time>2023-11-01T17:18:37Z</time>
      </trkpt>
      <trkpt lat="48.72445" lon="7.15783">
        <ele>325.1</ele>
        <time>2023-11-01T17:18:43Z</time>
      </trkpt>
      <trkpt lat="48.72442" lon="7.15812">
        <ele>325.5</ele>
        <time>2023-11-01T17:18:49Z</time>
      </trkpt>
      <trkpt lat="48.72441" lon="7.15844">
        <ele>325.8</ele>
        <time>2023-11-01T17:18:56Z</time>
      </trkpt>
      <trkpt lat="48.72439" lon="7.15872">
        <ele>325.8</ele>
        <time>2023-11-01T17:19:02Z</time>
      </trkpt>
      <trkpt lat="48.72437" lon="7.15901">
        <ele>325.6</ele>
        <time>2023-11-01T17:19:08Z</time>
      </trkpt>
      <trkpt lat="48.72435" lon="7.15931">
        <ele>325.2</ele>
        <time>2023-11-01T17:19:14Z</time>
      </trkpt>
      <trkpt lat="48.72433" lon="7.15962">
        <ele>324.7</ele>
        <time>2023-11-01T17:19:20Z</time>
      </trkpt>
      <trkpt lat="48.7243" lon="7.15992">
        <ele>324.2</ele>
        <time>2023-11-01T17:19:26Z</time>
      </trkpt>
      <trkpt lat="48.72415" lon="7.16011">
        <ele>324.3</ele>
        <time>2023-11-01T17:19:32Z</time>
      </trkpt>
      <trkpt lat="48.72397" lon="7.16019">
        <ele>324.5</ele>
        <time>2023-11-01T17:19:38Z</time>
      </trkpt>
      <trkpt lat="48.7238" lon="7.16032">
        <ele>324.7</ele>
        <time>2023-11-01T17:19:45Z</time>
      </trkpt>
      <trkpt lat="48.7237" lon="7.16056">
        <ele>325</ele>
        <time>2023-11-01T17:19:51Z</time>
      </trkpt>
      <trkpt lat="48.72365" lon="7.16082">
        <ele>325</ele>
        <time>2023-11-01T17:19:57Z</time>
      </trkpt>
      <trkpt lat="48.72361" lon="7.1611">
        <ele>324.9</ele>
        <time>2023-11-01T17:20:03Z</time>
      </trkpt>
      <trkpt lat="48.72356" lon="7.16138">
        <ele>324.9</ele>
        <time>2023-11-01T17:20:09Z</time>
      </trkpt>
      <trkpt lat="48.72351" lon="7.16165">
        <ele>324.8</ele>
        <time>2023-11-01T17:20:15Z</time>
      </trkpt>
      <trkpt lat="48.72347" lon="7.16193">
        <ele>324.8</ele>
        <time>2023-11-01T17:20:21Z</time>
      </trkpt>
      <trkpt lat="48.72342" lon="7.16221">
        <ele>324.6</ele>
        <time>2023-11-01T17:20:27Z</time>
      </trkpt>
      <trkpt lat="48.72337" lon="7.16251">
        <ele>324.3</ele>
        <time>2023-11-01T17:20:33Z</time>
      </trkpt>
      <trkpt lat="48.72333" lon="7.16279">
        <ele>323.7</ele>
        <time>2023-11-01T17:20:39Z</time>
      </trkpt>
      <trkpt lat="48.72328" lon="7.16308">
        <ele>322.9</ele>
        <time>2023-11-01T17:20:45Z</time>
      </trkpt>
      <trkpt lat="48.7232" lon="7.16338">
        <ele>321.8</ele>
        <time>2023-11-01T17:20:51Z</time>
      </trkpt>
      <trkpt lat="48.72308" lon="7.1636">
        <ele>320.7</ele>
        <time>2023-11-01T17:20:56Z</time>
      </trkpt>
      <trkpt lat="48.72294" lon="7.16378">
        <ele>319.7</ele>
        <time>2023-11-01T17:21:01Z</time>
      </trkpt>
      <trkpt lat="48.72278" lon="7.164">
        <ele>318.5</ele>
        <time>2023-11-01T17:21:07Z</time>
      </trkpt>
      <trkpt lat="48.72263" lon="7.16421">
        <ele>317.6</ele>
        <time>2023-11-01T17:21:13Z</time>
      </trkpt>
      <trkpt lat="48.7225" lon="7.1644">
        <ele>316.6</ele>
        <time>2023-11-01T17:21:18Z</time>
      </trkpt>
      <trkpt lat="48.72234" lon="7.16461">
        <ele>315.5</ele>
        <time>2023-11-01T17:21:24Z</time>
      </trkpt>
      <trkpt lat="48.72219" lon="7.1648">
        <ele>314.1</ele>
        <time>2023-11-01T17:21:30Z</time>
      </trkpt>
      <trkpt lat="48.72203" lon="7.16495">
        <ele>312.8</ele>
        <time>2023-11-01T17:21:36Z</time>
      </trkpt>
      <trkpt lat="48.72185" lon="7.16507">
        <ele>311.5</ele>
        <time>2023-11-01T17:21:42Z</time>
      </trkpt>
      <trkpt lat="48.72164" lon="7.16512">
        <ele>310.3</ele>
        <time>2023-11-01T17:21:48Z</time>
      </trkpt>
      <trkpt lat="48.72144" lon="7.16508">
        <ele>309.2</ele>
        <time>2023-11-01T17:21:54Z</time>
      </trkpt>
      <trkpt lat="48.72125" lon="7.16502">
        <ele>308.2</ele>
        <time>2023-11-01T17:22:00Z</time>
      </trkpt>
      <trkpt lat="48.72105" lon="7.16493">
        <ele>307.7</ele>
        <time>2023-11-01T17:22:06Z</time>
      </trkpt>
      <trkpt lat="48.72086" lon="7.16484">
        <ele>306.5</ele>
        <time>2023-11-01T17:22:12Z</time>
      </trkpt>
      <trkpt lat="48.72066" lon="7.16474">
        <ele>305.3</ele>
        <time>2023-11-01T17:22:18Z</time>
      </trkpt>
      <trkpt lat="48.72048" lon="7.16463">
        <ele>304</ele>
        <time>2023-11-01T17:22:24Z</time>
      </trkpt>
      <trkpt lat="48.72029" lon="7.16452">
        <ele>302.7</ele>
        <time>2023-11-01T17:22:30Z</time>
      </trkpt>
      <trkpt lat="48.72011" lon="7.16443">
        <ele>301.5</ele>
        <time>2023-11-01T17:22:36Z</time>
      </trkpt>
      <trkpt lat="48.71992" lon="7.16434">
        <ele>300.4</ele>
        <time>2023-11-01T17:22:42Z</time>
      </trkpt>
      <trkpt lat="48.71973" lon="7.16433">
        <ele>299.6</ele>
        <time>2023-11-01T17:22:48Z</time>
      </trkpt>
      <trkpt lat="48.71954" lon="7.16432">
        <ele>298.9</ele>
        <time>2023-11-01T17:22:54Z</time>
      </trkpt>
      <trkpt lat="48.71935" lon="7.16427">
        <ele>298.5</ele>
        <time>2023-11-01T17:23:00Z</time>
      </trkpt>
      <trkpt lat="48.71915" lon="7.16419">
        <ele>298.2</ele>
        <time>2023-11-01T17:23:06Z</time>
      </trkpt>
      <trkpt lat="48.71899" lon="7.16403">
        <ele>298.1</ele>
        <time>2023-11-01T17:23:12Z</time>
      </trkpt>
      <trkpt lat="48.71882" lon="7.16384">
        <ele>298.1</ele>
        <time>2023-11-01T17:23:19Z</time>
      </trkpt>
      <trkpt lat="48.71865" lon="7.16365">
        <ele>298</ele>
        <time>2023-11-01T17:23:26Z</time>
      </trkpt>
      <trkpt lat="48.71848" lon="7.16351">
        <ele>297.9</ele>
        <time>2023-11-01T17:23:33Z</time>
      </trkpt>
      <trkpt lat="48.7183" lon="7.16344">
        <ele>297.9</ele>
        <time>2023-11-01T17:23:40Z</time>
      </trkpt>
      <trkpt lat="48.71813" lon="7.16352">
        <ele>297.8</ele>
        <time>2023-11-01T17:23:47Z</time>
      </trkpt>
      <trkpt lat="48.71799" lon="7.16371">
        <ele>297.7</ele>
        <time>2023-11-01T17:23:55Z</time>
      </trkpt>
      <trkpt lat="48.71787" lon="7.16394">
        <ele>297.7</ele>
        <time>2023-11-01T17:24:02Z</time>
      </trkpt>
      <trkpt lat="48.71772" lon="7.16411">
        <ele>297.9</ele>
        <time>2023-11-01T17:24:08Z</time>
      </trkpt>
      <trkpt lat="48.71754" lon="7.16418">
        <ele>298.2</ele>
        <time>2023-11-01T17:24:14Z</time>
      </trkpt>
      <trkpt lat="48.71734" lon="7.16418">
        <ele>298.4</ele>
        <time>2023-11-01T17:24:20Z</time>
      </trkpt>
      <trkpt lat="48.71716" lon="7.16412">
        <ele>298.8</ele>
        <time>2023-11-01T17:24:26Z</time>
      </trkpt>
      <trkpt lat="48.71698" lon="7.16407">
        <ele>299.1</ele>
        <time>2023-11-01T17:24:32Z</time>
      </trkpt>
      <trkpt lat="48.71678" lon="7.16404">
        <ele>299.5</ele>
        <time>2023-11-01T17:24:39Z</time>
      </trkpt>
      <trkpt lat="48.71658" lon="7.16399">
        <ele>299.9</ele>
        <time>2023-11-01T17:24:46Z</time>
      </trkpt>
      <trkpt lat="48.71641" lon="7.16392">
        <ele>300.4</ele>
        <time>2023-11-01T17:24:52Z</time>
      </trkpt>
      <trkpt lat="48.71623" lon="7.16384">
        <ele>300.9</ele>
        <time>2023-11-01T17:24:58Z</time>
      </trkpt>
      <trkpt lat="48.71604" lon="7.16376">
        <ele>301.4</ele>
        <time>2023-11-01T17:25:04Z</time>
      </trkpt>
      <trkpt lat="48.71584" lon="7.16374">
        <ele>302</ele>
        <time>2023-11-01T17:25:11Z</time>
      </trkpt>
      <trkpt lat="48.71565" lon="7.16372">
        <ele>302.4</ele>
        <time>2023-11-01T17:25:19Z</time>
      </trkpt>
      <trkpt lat="48.71546" lon="7.16375">
        <ele>302.7</ele>
        <time>2023-11-01T17:25:26Z</time>
      </trkpt>
      <trkpt lat="48.71528" lon="7.16381">
        <ele>303.3</ele>
        <time>2023-11-01T17:25:33Z</time>
      </trkpt>
      <trkpt lat="48.71511" lon="7.16391">
        <ele>304</ele>
        <time>2023-11-01T17:25:40Z</time>
      </trkpt>
      <trkpt lat="48.71496" lon="7.16409">
        <ele>304.8</ele>
        <time>2023-11-01T17:25:47Z</time>
      </trkpt>
      <trkpt lat="48.71491" lon="7.16412">
        <ele>305</ele>
        <time>2023-11-01T17:25:48Z</time>
      </trkpt>
      <trkpt lat="48.71471" lon="7.16414">
        <ele>305.8</ele>
        <time>2023-11-01T17:25:56Z</time>
      </trkpt>
      <trkpt lat="48.71452" lon="7.16415">
        <ele>306.8</ele>
        <time>2023-11-01T17:26:03Z</time>
      </trkpt>
      <trkpt lat="48.71433" lon="7.16414">
        <ele>307.8</ele>
        <time>2023-11-01T17:26:10Z</time>
      </trkpt>
      <trkpt lat="48.71414" lon="7.1641">
        <ele>308.8</ele>
        <time>2023-11-01T17:26:16Z</time>
      </trkpt>
      <trkpt lat="48.71395" lon="7.16405">
        <ele>309.7</ele>
        <time>2023-11-01T17:26:23Z</time>
      </trkpt>
      <trkpt lat="48.71377" lon="7.16397">
        <ele>310.4</ele>
        <time>2023-11-01T17:26:30Z</time>
      </trkpt>
      <trkpt lat="48.71358" lon="7.16392">
        <ele>310.9</ele>
        <time>2023-11-01T17:26:38Z</time>
      </trkpt>
      <trkpt lat="48.71339" lon="7.16386">
        <ele>311.3</ele>
        <time>2023-11-01T17:26:45Z</time>
      </trkpt>
      <trkpt lat="48.7132" lon="7.16374">
        <ele>311.6</ele>
        <time>2023-11-01T17:26:52Z</time>
      </trkpt>
      <trkpt lat="48.71302" lon="7.1636">
        <ele>311.8</ele>
        <time>2023-11-01T17:26:58Z</time>
      </trkpt>
      <trkpt lat="48.71285" lon="7.16348">
        <ele>312</ele>
        <time>2023-11-01T17:27:04Z</time>
      </trkpt>
      <trkpt lat="48.71269" lon="7.16334">
        <ele>312.2</ele>
        <time>2023-11-01T17:27:10Z</time>
      </trkpt>
      <trkpt lat="48.71254" lon="7.16318">
        <ele>312.5</ele>
        <time>2023-11-01T17:27:16Z</time>
      </trkpt>
      <trkpt lat="48.71238" lon="7.16299">
        <ele>312.9</ele>
        <time>2023-11-01T17:27:23Z</time>
      </trkpt>
      <trkpt lat="48.71222" lon="7.16286">
        <ele>313.3</ele>
        <time>2023-11-01T17:27:29Z</time>
      </trkpt>
      <trkpt lat="48.71205" lon="7.16274">
        <ele>313.9</ele>
        <time>2023-11-01T17:27:35Z</time>
      </trkpt>
      <trkpt lat="48.71186" lon="7.16266">
        <ele>314.7</ele>
        <time>2023-11-01T17:27:42Z</time>
      </trkpt>
      <trkpt lat="48.71167" lon="7.16266">
        <ele>315.8</ele>
        <time>2023-11-01T17:27:51Z</time>
      </trkpt>
      <trkpt lat="48.7115" lon="7.16276">
        <ele>316.7</ele>
        <time>2023-11-01T17:28:00Z</time>
      </trkpt>
      <trkpt lat="48.71145" lon="7.16283">
        <ele>317</ele>
        <time>2023-11-01T17:28:04Z</time>
      </trkpt>
    </trkseg>
  </trk>
</gpx>